Flight Track Log - Related Links

Times and Time Zones

All times are in EDT time to prevent confusion due to time zone crossing. See the TRS423 flight status page for this flight to view local times or setup timezone preferences in your user account.

Time Position Orientation Groundspeed Altitude Reporting Facility
EDT Latitude Longitude Course Direction KTS MPH feet Rate Location/Type
Sun 02:32:41 PM 28.4000 -81.3000 156° South 178 205 1,200  Level Orlando TRACON
Sun 02:33:12 PM 28.3667 -81.2833 156° South 209 241 1,900 1,780 Climbing Orlando TRACON
Sun 02:34:12 PM 28.3167 -81.2333 139° Southeast 263 303 3,900 2,450 Climbing Orlando TRACON
Sun 02:35:12 PM 28.3333 -81.1500 77° East 269 310 6,800 2,700 Climbing Orlando TRACON
Sun 02:36:12 PM 28.3833 -81.1000 41° Northeast 292 336 9,300 1,881 Climbing Orlando TRACON
Sun 02:38:33 PM 28.5914 -81.1928 339° North 334 384 13,100 1,761 Climbing Jacksonville Center
Sun 02:39:33 PM 28.6922 -81.2336 340° North 361 415 15,200 2,050 Climbing Jacksonville Center
Sun 02:40:33 PM 28.7992 -81.2719 343° North 383 441 17,200 1,800 Climbing Jacksonville Center
Sun 02:41:33 PM 28.9061 -81.3153 340° North 394 453 18,800 1,700 Climbing Jacksonville Center
Sun 02:42:33 PM 29.0111 -81.3564 341° North 405 466 20,600 1,650 Climbing Jacksonville Center
Sun 02:43:33 PM 29.1242 -81.3928 344° North 410 472 22,100 1,400 Climbing Jacksonville Center
Sun 02:44:33 PM 29.2433 -81.4075 354° North 415 478 23,400 1,350 Climbing Jacksonville Center
Sun 02:45:33 PM 29.3667 -81.4153 357° North 428 493 24,800 1,350 Climbing Jacksonville Center
Sun 02:46:33 PM 29.4878 -81.4278 355° North 433 498 26,100 1,150 Climbing Jacksonville Center
Sun 02:47:33 PM 29.6131 -81.4400 355° North 438 504 27,100 1,150 Climbing Jacksonville Center
Sun 02:48:33 PM 29.7386 -81.4525 355° North 444 511 28,400 1,250 Climbing Jacksonville Center
Sun 02:49:33 PM 29.8639 -81.4653 355° North 450 518 29,600 1,150 Climbing Jacksonville Center
Sun 02:50:33 PM 29.9894 -81.4778 355° North 445 512 30,700 700 Climbing Jacksonville Center
Sun 02:51:33 PM 30.1106 -81.4758 North 440 506 31,000 150 Climbing Jacksonville Center
Sun 02:52:33 PM 30.2356 -81.4597 North 441 507 31,000  Level Jacksonville Center
Sun 02:53:33 PM 30.3606 -81.4408 North 441 507 31,000 100 Level Jacksonville Center
Sun 02:54:33 PM 30.4731 -81.4272 North 448 516 31,200 600 Climbing Jacksonville Center
Sun 02:55:33 PM 30.5981 -81.4083 North 448 516 32,200 900 Climbing Jacksonville Center
Sun 02:56:33 PM 30.7233 -81.3942 North 443 510 33,000 400 Climbing Jacksonville Center
Sun 02:57:33 PM 30.8464 -81.3756 North 443 510 33,000  Level Jacksonville Center
Sun 02:58:33 PM 30.9625 -81.3156 24° Northeast 443 510 33,000  Level Jacksonville Center
Sun 02:59:33 PM 31.0742 -81.2431 29° Northeast 448 516 33,000  Level Jacksonville Center
Sun 03:00:33 PM 31.1881 -81.1683 29° Northeast 453 521 33,000  Level Jacksonville Center
Sun 03:01:33 PM 31.3019 -81.0958 29° Northeast 453 521 33,000  Level Jacksonville Center
Sun 03:02:33 PM 31.4219 -81.0131 30° Northeast 453 521 33,000  Level Jacksonville Center
Sun 03:03:33 PM 31.5356 -80.9403 29° Northeast 453 521 33,000  Level Jacksonville Center
Sun 03:04:33 PM 31.6369 -80.8769 28° Northeast 453 521 33,000  Level Jacksonville Center
Sun 03:05:33 PM 31.7608 -80.7961 29° Northeast 454 522 33,000  Level Jacksonville Center
Sun 03:06:33 PM 31.8619 -80.7278 30° Northeast 459 528 33,000  Level Jacksonville Center
Sun 03:07:33 PM 31.9858 -80.6489 28° Northeast 458 527 33,000  Level Jacksonville Center
Sun 03:08:33 PM 32.0972 -80.5725 30° Northeast 454 522 33,000  Level Jacksonville Center
Sun 03:09:33 PM 32.2067 -80.5011 29° Northeast 454 522 33,000  Level Jacksonville Center
Sun 03:10:33 PM 32.3158 -80.4269 30° Northeast 449 517 33,000  Level Jacksonville Center
Sun 03:11:33 PM 32.4269 -80.3525 29° Northeast 449 517 33,000  Level Jacksonville Center
Sun 03:12:33 PM 32.5383 -80.2781 29° Northeast 454 522 33,000  Level Jacksonville Center
Sun 03:13:33 PM 32.6494 -80.2033 30° Northeast 454 522 33,000  Level Jacksonville Center
Sun 03:14:33 PM 32.7606 -80.1283 30° Northeast 454 522 33,000  Level Jacksonville Center
Sun 03:15:33 PM 32.8675 -80.0533 30° Northeast 454 522 33,000  Level Jacksonville Center
Sun 03:16:33 PM 32.9636 -79.9661 37° Northeast 465 535 33,000  Level Jacksonville Center
Sun 03:17:33 PM 33.0636 -79.8711 39° Northeast 465 535 33,000  Level Jacksonville Center
Sun 03:18:33 PM 33.1656 -79.7758 38° Northeast 465 535 33,000  Level Jacksonville Center
Sun 03:19:33 PM 33.2656 -79.6806 39° Northeast 459 528 33,000  Level Jacksonville Center
Sun 03:20:33 PM 33.3631 -79.5825 40° Northeast 459 528 33,000  Level Jacksonville Center
Sun 03:21:33 PM 33.4672 -79.4914 36° Northeast 459 528 33,000  Level Jacksonville Center
Sun 03:22:33 PM 33.5689 -79.3978 37° Northeast 459 528 33,000  Level Jacksonville Center
Sun 03:23:33 PM 33.6728 -79.3039 37° Northeast 459 528 33,000  Level Jacksonville Center
Sun 03:24:33 PM 33.7683 -79.2175 37° Northeast 447 514 33,000  Level Jacksonville Center
Sun 03:25:33 PM 33.8697 -79.1233 38° Northeast 447 514 33,000  Level Jacksonville Center
Sun 03:27:54 PM 34.1181 -78.8931 37° Northeast 448 516 33,000  Level Washington Center
Sun 03:28:55 PM 34.2228 -78.8017 36° Northeast 453 521 33,000  Level Washington Center
Sun 03:29:55 PM 34.3253 -78.7053 38° Northeast 460 529 33,000  Level Washington Center
Sun 03:30:56 PM 34.4281 -78.6083 38° Northeast 460 529 33,000  Level Washington Center
Sun 03:31:55 PM 34.5283 -78.5164 37° Northeast 453 521 33,000  Level Washington Center
Sun 03:32:57 PM 34.6308 -78.4139 39° Northeast 459 528 33,000  Level Washington Center
Sun 03:33:54 PM 34.7333 -78.3189 37° Northeast 459 528 33,000  Level Washington Center
Sun 03:34:54 PM 34.8231 -78.2283 40° Northeast 459 528 33,000  Level Washington Center
Sun 03:35:55 PM 34.9272 -78.1303 38° Northeast 459 528 33,000  Level Washington Center
Sun 03:36:56 PM 35.0275 -78.0347 38° Northeast 459 528 33,000  Level Washington Center
Sun 03:37:54 PM 35.1294 -77.9411 37° Northeast 454 522 33,000  Level Washington Center
Sun 03:38:55 PM 35.2272 -77.8447 39° Northeast 454 522 33,000  Level Washington Center
Sun 03:39:56 PM 35.3250 -77.7508 38° Northeast 454 522 33,000  Level Washington Center
Sun 03:40:56 PM 35.4247 -77.6542 38° Northeast 454 522 33,000  Level Washington Center
Sun 03:41:54 PM 35.5222 -77.5597 38° Northeast 454 522 33,000  Level Washington Center
Sun 03:42:55 PM 35.6219 -77.4650 38° Northeast 454 522 33,000  Level Washington Center
Sun 03:43:56 PM 35.7194 -77.3700 38° Northeast 454 522 33,000  Level Washington Center
Sun 03:44:54 PM 35.8167 -77.2750 38° Northeast 454 522 33,000  Level Washington Center
Sun 03:45:54 PM 35.9161 -77.1794 38° Northeast 454 522 33,000  Level Washington Center
Sun 03:46:56 PM 36.0197 -77.0711 40° Northeast 449 517 33,000  Level Washington Center
Sun 03:47:56 PM 36.1189 -76.9753 38° Northeast 454 522 33,000 -458 Level Washington Center
Sun 03:48:54 PM 36.2222 -76.8819 36° Northeast 454 522 32,100 -966 Descending Washington Center
Sun 03:49:54 PM 36.3314 -76.7986 32° Northeast 454 522 31,100 -1,000 Descending Washington Center
Sun 03:50:54 PM 36.4408 -76.7178 31° Northeast 454 522 30,100 -992 Descending Washington Center
Sun 03:51:55 PM 36.5522 -76.6339 31° Northeast 459 528 29,100 -541 Descending Washington Center
Sun 03:52:56 PM 36.6614 -76.5525 31° Northeast 454 522 29,000 -50 Descending Washington Center
Sun 03:53:54 PM 36.7683 -76.4683 32° Northeast 449 517 29,000  Level Washington Center
Sun 03:54:55 PM 36.8772 -76.3864 31° Northeast 454 522 29,000  Level Washington Center
Sun 03:55:54 PM 36.9842 -76.3017 32° Northeast 454 522 29,000  Level Washington Center
Sun 03:56:55 PM 37.0911 -76.2194 32° Northeast 448 516 29,000  Level Washington Center
Sun 03:57:54 PM 37.2000 -76.1419 30° Northeast 448 516 29,000  Level Washington Center
Sun 03:58:54 PM 37.3047 -76.0592 32° Northeast 448 516 29,000 -347 Level Washington Center
Sun 03:59:55 PM 37.4114 -75.9789 31° Northeast 448 516 28,300 -836 Descending Washington Center
Sun 04:00:56 PM 37.5158 -75.8956 32° Northeast 448 516 27,300 -893 Descending Washington Center
Sun 04:01:56 PM 37.6078 -75.8225 32° Northeast 448 516 26,500 -915 Descending Washington Center
Sun 04:02:54 PM 37.7122 -75.7442 31° Northeast 442 509 25,500 -756 Descending Washington Center
Sun 04:03:55 PM 37.8122 -75.6628 33° Northeast 436 502 25,000 -295 Descending Washington Center
Sun 04:04:56 PM 37.9144 -75.5811 32° Northeast 430 495 24,900 -555 Descending Washington Center
Sun 04:05:54 PM 38.0147 -75.5022 32° Northeast 430 495 23,900 -1,008 Descending Washington Center
Sun 04:06:55 PM 38.1189 -75.4308 28° Northeast 430 495 22,900 -984 Descending Washington Center
Sun 04:07:56 PM 38.2208 -75.3672 26° Northeast 410 472 21,900 -793 Descending Washington Center
Sun 04:08:56 PM 38.3167 -75.3006 29° Northeast 405 466 21,300 -600 Descending Washington Center
Sun 04:09:56 PM 38.4167 -75.2367 27° Northeast 400 460 20,700 -1,373 Descending Washington Center
Sun 04:10:54 PM 38.5144 -75.1750 26° Northeast 394 453 18,600 -2,521 Descending Washington Center
Sun 04:11:55 PM 38.6100 -75.1133 27° Northeast 383 441 15,700 -1,770 Descending Washington Center
Sun 04:12:56 PM 38.7014 -75.0544 27° Northeast 378 435 15,000 -347 Descending Washington Center
Sun 04:13:56 PM 38.7931 -74.9978 26° Northeast 368 423 15,000  Level Washington Center
Sun 04:14:54 PM 38.8886 -74.9408 25° Northeast 362 417 15,000 -504 Level Washington Center
Sun 04:15:55 PM 38.9822 -74.9161 12° North 345 397 14,000 -984 Descending Washington Center
Sun 04:16:56 PM 39.0761 -74.9286 354° North 338 389 13,000 -1,008 Descending Washington Center
Sun 04:17:54 PM 39.1700 -74.9358 357° North 333 383 12,000 -1,103 Descending Washington Center
Sun 04:19:50 PM 39.3333 -74.9500 356° North 253 291 9,800 -1,023 Descending Philadelphia TRACON
Sun 04:20:50 PM 39.4000 -74.9833 339° North 258 297 9,000 -1,050 Descending Philadelphia TRACON
Sun 04:21:50 PM 39.4500 -75.0333 322° Northwest 249 287 7,700 -1,550 Descending Philadelphia TRACON
Sun 04:22:50 PM 39.5167 -75.0500 349° North 252 290 5,900 -900 Descending Philadelphia TRACON
Sun 04:23:50 PM 39.6000 -75.0667 351° North 259 298 5,900  Level Philadelphia TRACON
Sun 04:24:50 PM 39.6667 -75.0667 360° North 256 295 5,900  Level Philadelphia TRACON
Sun 04:25:50 PM 39.7333 -75.0833 349° North 259 298 5,900  Level Philadelphia TRACON
Sun 04:26:50 PM 39.8000 -75.0833 360° North 197 227 5,900  Level Philadelphia TRACON
Sun 04:27:50 PM 39.8167 -75.0000 75° East 217 250 5,900 -650 Level Philadelphia TRACON
Sun 04:28:50 PM 39.8500 -74.9500 49° Northeast 204 235 4,600 -1,400 Descending Philadelphia TRACON
Sun 04:29:50 PM 39.9000 -74.9667 346° North 179 206 3,100 -793 Descending Philadelphia TRACON
Sun 04:30:51 PM 39.9167 -75.0167 294° West 182 209 3,000 -496 Descending Philadelphia TRACON
Sun 04:31:51 PM 39.9000 -75.0833 252° West 166 191 2,100 -850 Descending Philadelphia TRACON
Sun 04:32:51 PM 39.9000 -75.1333 270° West 160 184 1,300 -750 Descending Philadelphia TRACON
Sun 04:33:51 PM 39.8833 -75.1833 247° West 117 135 600 -700 Descending Philadelphia TRACON
Sun 04:35:00 PM 39.8667 -75.2333 279° West  Level FlightAware Approximate
Sun 04:42:00 PM 39.8722 -75.2409 279° West  Level Estimated

Login

Don't have an account? Register now (free) for customized features, flight alerts, and more!